Willow, Oklahoma
Current Conditions -  °F | °C
As of 2:55 AM on Saturday 22 Nov 2014 (Local Time) from KAXS Reporting Station
Thunderstorm Thunderstorm  
Wind Chill: 58°   Ceiling: 400
Heat Index: 58°   Visibility: 2mi
Dew Point: 55°   Wind: 7mph
Humidity: 91%   Direction: 120°ESE
Pressure: 30.03"   Gusts: NA
Location:  35.05°N, 99.51°W
Report Text: KAXS 220855Z AUTO 12006KT 2SM VCTS BR OVC004 15/13 A3003 RMK AO2 LTG DSNT SE AND S T01450130
Loading
Personal Weather Stations






























Interactive Weather Map New forecast layout! Learn more

10-Day Weather Forecast

Advertisements
Track Severe Weather on mobile